Time;durP1;ratioP1;P1;durP2;ratioP2;P2;SDS_P1;SDS_P2;PMS_P1;PMS_P2;Temp;Humidity;BMP_temperature;BMP_pressure;BME280_temperature;BME280_humidity;BME280_pressure;Samples;Min_cycle;Max_cycle;Signal;HPM_P1;HPM_P2
2023/10/15 00:00:12;;;;;;;4.07;2.40;;;9.80;99.90;;;;;;4996294;28;20189;-82
2023/10/15 00:02:39;;;;;;;1.98;1.77;;;9.80;99.90;;;;;;4994334;28;20204;-82
2023/10/15 00:05:05;;;;;;;3.70;1.75;;;9.50;99.90;;;;;;4996130;28;20186;-83
2023/10/15 00:07:31;;;;;;;3.85;2.25;;;9.90;99.90;;;;;;4999360;28;20277;-82
2023/10/15 00:09:56;;;;;;;2.50;1.67;;;9.10;99.90;;;;;;5005247;28;20200;-83
2023/10/15 00:12:22;;;;;;;3.10;2.00;;;9.80;99.90;;;;;;4998763;28;21013;-83
2023/10/15 00:14:47;;;;;;;2.43;2.10;;;9.40;99.90;;;;;;4997829;28;20182;-83
2023/10/15 00:17:13;;;;;;;4.63;1.70;;;8.90;99.90;;;;;;5000765;28;20872;-81
2023/10/15 00:19:39;;;;;;;3.20;1.90;;;9.50;99.90;;;;;;4998297;28;20194;-82
2023/10/15 00:22:07;;;;;;;3.30;2.10;;;9.50;99.90;;;;;;4999101;28;20726;-83
2023/10/15 00:24:33;;;;;;;3.60;1.88;;;9.40;99.90;;;;;;5000773;28;20457;-83
2023/10/15 00:26:58;;;;;;;5.37;2.20;;;9.20;99.90;;;;;;5000247;28;20276;-83
2023/10/15 00:29:25;;;;;;;2.60;1.90;;;9.10;99.90;;;;;;5004186;28;20189;-82
2023/10/15 00:31:50;;;;;;;3.00;1.80;;;9.50;99.90;;;;;;5003604;28;20210;-82
2023/10/15 00:34:17;;;;;;;2.37;1.97;;;9.60;99.90;;;;;;5003222;28;20214;-82
2023/10/15 00:36:43;;;;;;;1.65;1.50;;;9.60;99.90;;;;;;5000417;28;20453;-82
2023/10/15 00:39:19;;;;;;;5.40;1.95;;;9.70;99.90;;;;;;5002208;28;20181;-82
2023/10/15 00:41:47;;;;;;;2.72;1.90;;;9.20;99.90;;;;;;5015316;28;20184;-82
2023/10/15 00:44:14;;;;;;;3.78;2.00;;;9.00;99.90;;;;;;4989457;28;20287;-83
2023/10/15 00:46:40;;;;;;;3.17;2.20;;;9.50;99.90;;;;;;5000593;28;20201;-83
2023/10/15 00:49:10;;;;;;;4.35;2.10;;;9.60;99.90;;;;;;4998021;28;20189;-81
2023/10/15 00:51:41;;;;;;;3.72;1.80;;;9.70;99.90;;;;;;5003027;28;20249;-81
2023/10/15 00:54:11;;;;;;;4.72;2.28;;;9.40;99.90;;;;;;5002668;28;20205;-81
2023/10/15 00:56:36;;;;;;;4.05;1.80;;;9.40;99.90;;;;;;4999087;28;20186;-82
2023/10/15 00:59:08;;;;;;;3.27;1.87;;;9.90;99.90;;;;;;4990404;28;20194;-82
2023/10/15 01:01:34;;;;;;;2.28;1.42;;;9.80;99.90;;;;;;4990449;28;20182;-84
2023/10/15 01:04:02;;;;;;;3.47;1.90;;;9.40;99.90;;;;;;5003853;28;20204;-83
2023/10/15 01:06:39;;;;;;;2.50;2.00;;;10.00;99.90;;;;;;4989752;28;20209;-81
2023/10/15 01:09:18;;;;;;;3.40;1.67;;;9.70;99.90;;;;;;4989375;28;20185;-82
2023/10/15 01:11:58;;;;;;;2.28;1.58;;;9.70;99.90;;;;;;4990999;28;20191;-82
2023/10/15 01:14:31;;;;;;;2.45;1.90;;;9.90;99.90;;;;;;4988254;28;20189;-82
2023/10/15 01:16:59;;;;;;;2.00;1.52;;;10.30;99.90;;;;;;4991275;28;20644;-83
2023/10/15 01:19:32;;;;;;;2.35;1.55;;;9.80;99.90;;;;;;4989337;28;20228;-83
2023/10/15 01:22:02;;;;;;;2.50;1.60;;;10.10;99.90;;;;;;4989825;28;20220;-83
2023/10/15 01:24:32;;;;;;;3.50;1.55;;;10.10;99.90;;;;;;5001122;28;20548;-83
2023/10/15 01:27:12;;;;;;;3.70;2.50;;;10.00;99.90;;;;;;4992164;28;20210;-83
2023/10/15 01:29:44;;;;;;;5.78;2.25;;;9.90;99.90;;;;;;4988379;28;20186;-83
2023/10/15 01:32:14;;;;;;;3.35;1.70;;;10.10;99.90;;;;;;4989505;28;20245;-82
2023/10/15 01:34:44;;;;;;;6.32;2.60;;;9.80;99.90;;;;;;4988644;28;21950;-82
2023/10/15 01:40:15;;;;;;;1.80;1.70;;;10.20;99.90;;;;;;4993959;28;20193;-83
2023/10/15 01:42:41;;;;;;;2.85;1.67;;;9.80;99.90;;;;;;4987841;28;20210;-82
2023/10/15 01:47:37;;;;;;;5.47;2.05;;;10.00;99.90;;;;;;4991752;28;20222;-83
2023/10/15 01:50:09;;;;;;;2.10;1.50;;;10.10;99.90;;;;;;4989366;28;20241;-83
2023/10/15 01:52:42;;;;;;;2.75;1.50;;;10.20;99.90;;;;;;4988646;28;20730;-83
2023/10/15 01:55:07;;;;;;;3.05;1.75;;;10.10;99.90;;;;;;4991888;28;20558;-83
2023/10/15 01:57:39;;;;;;;1.70;1.33;;;10.30;99.90;;;;;;4997500;28;20195;-83
2023/10/15 02:00:14;;;;;;;2.15;1.58;;;10.60;99.90;;;;;;4993456;28;20662;-83
2023/10/15 02:02:43;;;;;;;4.47;1.92;;;10.60;99.90;;;;;;4993355;28;20213;-83
2023/10/15 02:05:25;;;;;;;2.70;1.33;;;10.10;99.90;;;;;;4995091;28;20185;-83
2023/10/15 02:07:51;;;;;;;2.88;1.50;;;9.70;99.90;;;;;;5003916;28;20328;-83
2023/10/15 02:10:16;;;;;;;2.77;1.70;;;10.00;99.90;;;;;;4994970;28;20270;-83
2023/10/15 02:12:42;;;;;;;2.80;1.50;;;10.30;99.90;;;;;;4993893;28;20633;-83
2023/10/15 02:15:14;;;;;;;3.23;1.70;;;9.90;99.90;;;;;;4992731;28;20182;-83
2023/10/15 02:17:43;;;;;;;3.25;1.50;;;10.10;99.90;;;;;;4993685;28;20234;-83
2023/10/15 02:20:12;;;;;;;4.50;1.77;;;10.10;99.90;;;;;;4993181;28;20185;-83
2023/10/15 02:22:38;;;;;;;5.22;1.67;;;10.20;99.90;;;;;;4991885;28;20714;-83
2023/10/15 02:25:08;;;;;;;2.65;1.63;;;10.30;99.90;;;;;;4997393;28;20212;-83
2023/10/15 02:27:35;;;;;;;3.15;1.30;;;10.20;99.90;;;;;;4994949;28;20304;-83
2023/10/15 02:30:01;;;;;;;2.95;1.65;;;10.30;99.90;;;;;;4993886;28;20208;-83
2023/10/15 02:34:54;;;;;;;3.23;1.53;;;9.90;99.90;;;;;;4997278;28;20187;-83
2023/10/15 02:37:27;;;;;;;4.40;1.55;;;10.20;99.90;;;;;;4993378;28;20185;-82
2023/10/15 02:39:59;;;;;;;2.58;1.50;;;9.90;99.90;;;;;;4991307;28;20689;-83
2023/10/15 02:42:33;;;;;;;3.25;1.70;;;10.60;99.90;;;;;;4992725;28;20673;-83
2023/10/15 02:44:59;;;;;;;3.67;1.70;;;10.20;99.90;;;;;;4995952;28;20294;-83
2023/10/15 02:50:17;;;;;;;2.30;1.63;;;10.30;99.90;;;;;;4995230;28;20196;-83
2023/10/15 02:52:43;;;;;;;1.75;1.55;;;9.90;99.90;;;;;;4991234;28;20752;-83
2023/10/15 02:55:11;;;;;;;2.55;1.40;;;10.20;99.90;;;;;;4994831;28;20272;-83
2023/10/15 02:57:43;;;;;;;1.60;1.50;;;10.00;99.90;;;;;;4992639;28;20201;-83
2023/10/15 03:00:18;;;;;;;4.20;1.60;;;10.20;99.90;;;;;;4989222;28;20711;-83
2023/10/15 03:02:44;;;;;;;2.70;1.88;;;10.20;99.90;;;;;;4993926;28;20335;-83
2023/10/15 03:05:14;;;;;;;4.63;1.42;;;10.30;99.90;;;;;;4993393;28;20619;-83
2023/10/15 03:07:43;;;;;;;3.35;1.50;;;10.30;99.90;;;;;;4994039;28;20214;-82
2023/10/15 03:10:13;;;;;;;4.70;1.92;;;10.00;99.90;;;;;;5001839;28;20208;-83
2023/10/15 03:12:44;;;;;;;2.17;1.70;;;10.30;99.90;;;;;;4988901;28;20205;-82
2023/10/15 03:15:13;;;;;;;3.15;1.73;;;10.40;99.90;;;;;;4984397;28;20193;-83
2023/10/15 03:17:43;;;;;;;2.13;1.50;;;10.10;99.90;;;;;;4994010;28;20196;-83
2023/10/15 03:20:22;;;;;;;3.05;1.70;;;10.00;99.90;;;;;;4992945;28;20198;-81
2023/10/15 03:22:51;;;;;;;2.30;2.10;;;10.60;99.90;;;;;;4999401;28;20225;-81
2023/10/15 03:25:17;;;;;;;2.30;1.25;;;10.80;99.90;;;;;;4994769;28;20192;-81
2023/10/15 03:27:46;;;;;;;3.35;1.50;;;10.40;99.90;;;;;;4994164;28;21932;-81
2023/10/15 03:30:13;;;;;;;2.88;1.60;;;10.10;99.90;;;;;;4999862;28;20190;-81
2023/10/15 03:32:45;;;;;;;2.60;1.80;;;10.20;99.90;;;;;;4990577;28;20197;-81
2023/10/15 03:35:18;;;;;;;2.65;1.85;;;10.30;99.90;;;;;;4994773;28;20182;-81
2023/10/15 03:37:47;;;;;;;2.42;1.60;;;9.90;99.90;;;;;;4992651;28;20231;-81
2023/10/15 03:40:30;;;;;;;3.25;2.00;;;10.30;99.90;;;;;;4994300;28;20200;-81
2023/10/15 03:43:15;;;;;;;2.25;1.20;;;10.50;99.90;;;;;;4992463;28;20205;-81
2023/10/15 03:45:50;;;;;;;3.47;1.50;;;9.90;99.90;;;;;;5001394;28;20835;-81
2023/10/15 03:48:31;;;;;;;2.50;1.58;;;10.70;99.90;;;;;;4995299;28;20239;-81
2023/10/15 03:50:58;;;;;;;2.30;1.38;;;10.30;99.90;;;;;;4993474;28;20195;-81
2023/10/15 03:53:27;;;;;;;2.75;1.60;;;10.40;99.90;;;;;;4994295;28;20567;-81
2023/10/15 03:56:04;;;;;;;1.75;1.23;;;10.20;99.90;;;;;;4989029;28;20269;-81
2023/10/15 03:58:33;;;;;;;4.70;2.33;;;10.20;99.90;;;;;;4992596;28;20182;-81
2023/10/15 04:03:35;;;;;;;3.35;1.80;;;10.90;99.90;;;;;;4997306;28;20289;-81
2023/10/15 04:06:05;;;;;;;3.58;1.50;;;10.40;99.90;;;;;;4993854;28;20197;-81
2023/10/15 04:08:31;;;;;;;2.42;1.50;;;10.60;99.90;;;;;;4991072;28;20652;-81
2023/10/15 04:10:57;;;;;;;2.10;1.50;;;10.00;99.90;;;;;;4992761;28;20214;-81
2023/10/15 04:13:26;;;;;;;4.57;1.60;;;10.20;99.90;;;;;;5005210;28;20571;-81
2023/10/15 04:15:55;;;;;;;5.15;1.50;;;10.60;99.90;;;;;;4994150;28;20179;-80
2023/10/15 04:18:24;;;;;;;2.97;1.40;;;10.40;99.90;;;;;;4992817;28;20202;-81
2023/10/15 04:20:55;;;;;;;3.40;1.63;;;10.50;99.90;;;;;;4989253;28;20182;-81
2023/10/15 04:23:34;;;;;;;2.50;1.83;;;10.60;99.90;;;;;;4990950;28;20218;-81
2023/10/15 04:26:07;;;;;;;3.58;1.80;;;10.50;99.90;;;;;;4990710;28;20172;-81
2023/10/15 04:28:36;;;;;;;5.05;1.63;;;10.90;99.90;;;;;;4986588;28;20608;-81
2023/10/15 04:31:16;;;;;;;1.58;1.45;;;9.90;99.90;;;;;;4994128;28;20201;-81
2023/10/15 04:33:43;;;;;;;3.95;1.35;;;10.60;99.90;;;;;;4990428;28;20216;-81
2023/10/15 04:36:09;;;;;;;3.88;1.40;;;10.20;99.90;;;;;;4994105;28;20190;-81
2023/10/15 04:38:38;;;;;;;2.30;1.53;;;10.40;99.90;;;;;;5005921;28;20182;-81
2023/10/15 04:41:04;;;;;;;2.28;1.40;;;10.70;99.90;;;;;;4991704;28;20186;-81
2023/10/15 04:43:40;;;;;;;4.63;1.90;;;10.50;99.90;;;;;;4992346;28;20204;-81
2023/10/15 04:46:07;;;;;;;4.57;1.65;;;11.10;99.90;;;;;;4986694;28;20613;-81
2023/10/15 04:48:36;;;;;;;5.50;2.30;;;10.60;99.90;;;;;;4992075;28;20768;-82
2023/10/15 04:51:12;;;;;;;3.20;1.45;;;10.80;99.90;;;;;;5000344;28;20182;-81
2023/10/15 04:53:42;;;;;;;2.45;1.40;;;10.70;99.90;;;;;;4991956;28;20204;-82
2023/10/15 04:56:08;;;;;;;1.80;1.33;;;10.70;99.90;;;;;;4991840;28;20599;-80
2023/10/15 04:58:34;;;;;;;3.35;2.05;;;10.10;99.90;;;;;;4994247;28;20198;-80
2023/10/15 05:01:00;;;;;;;2.55;1.70;;;9.90;99.90;;;;;;5005845;28;20642;-82
2023/10/15 05:03:25;;;;;;;2.30;1.27;;;10.00;99.90;;;;;;4987079;28;20265;-82
2023/10/15 05:05:53;;;;;;;4.70;3.50;;;11.00;99.90;;;;;;4987648;28;20188;-81
2023/10/15 05:08:18;;;;;;;3.58;1.42;;;10.40;99.90;;;;;;4988508;28;20313;-81
2023/10/15 05:10:45;;;;;;;2.03;1.43;;;10.80;99.90;;;;;;4989802;28;20285;-81
2023/10/15 05:13:12;;;;;;;2.03;1.60;;;10.10;99.90;;;;;;4992621;28;20210;-81
2023/10/15 05:15:38;;;;;;;3.42;1.75;;;10.30;99.90;;;;;;4995358;28;20193;-81
2023/10/15 05:18:04;;;;;;;2.63;1.90;;;10.30;99.90;;;;;;4991662;28;20181;-81
2023/10/15 05:20:31;;;;;;;1.70;1.55;;;10.50;99.90;;;;;;4993805;28;20186;-82
2023/10/15 05:22:56;;;;;;;3.45;1.58;;;10.60;99.90;;;;;;4994279;28;20224;-81
2023/10/15 05:25:22;;;;;;;6.00;1.77;;;10.40;99.90;;;;;;4990816;28;20681;-81
2023/10/15 05:27:51;;;;;;;2.57;1.63;;;10.90;99.90;;;;;;4989724;28;20254;-80
2023/10/15 05:30:16;;;;;;;3.78;2.05;;;10.00;99.90;;;;;;4990353;28;20197;-80
2023/10/15 05:32:48;;;;;;;4.50;1.57;;;10.50;99.90;;;;;;4990072;28;20321;-81
2023/10/15 05:35:17;;;;;;;3.67;1.60;;;10.40;99.90;;;;;;4990330;28;20515;-82
2023/10/15 05:37:44;;;;;;;3.90;1.80;;;10.10;99.90;;;;;;4988749;28;20189;-81
2023/10/15 05:40:09;;;;;;;5.43;1.65;;;10.40;99.90;;;;;;4997743;28;20190;-80
2023/10/15 05:42:35;;;;;;;3.50;1.77;;;10.60;99.90;;;;;;4994770;28;20211;-80
2023/10/15 05:45:01;;;;;;;3.73;2.20;;;10.10;99.90;;;;;;4992807;28;20437;-81
2023/10/15 05:47:28;;;;;;;3.70;2.10;;;9.90;99.90;;;;;;4985165;28;20216;-81
2023/10/15 05:49:54;;;;;;;4.80;1.95;;;9.90;99.90;;;;;;4989870;28;20955;-81
2023/10/15 05:52:20;;;;;;;4.35;2.30;;;10.50;99.90;;;;;;4987705;28;20217;-80
2023/10/15 05:54:47;;;;;;;3.23;1.90;;;9.80;99.90;;;;;;4994380;28;20193;-81
2023/10/15 05:57:13;;;;;;;4.70;1.80;;;10.10;99.90;;;;;;4992097;28;20188;-80
2023/10/15 05:59:38;;;;;;;1.93;1.73;;;10.50;99.90;;;;;;4989875;28;20198;-80
2023/10/15 06:02:04;;;;;;;2.70;1.60;;;10.10;99.90;;;;;;4990368;28;20662;-80
2023/10/15 06:04:30;;;;;;;6.07;1.97;;;10.10;99.90;;;;;;4991004;28;20191;-80
2023/10/15 06:06:57;;;;;;;2.08;1.40;;;10.40;99.90;;;;;;4990773;28;20270;-80
2023/10/15 06:09:23;;;;;;;4.65;2.20;;;10.40;99.90;;;;;;4988532;28;20205;-80
2023/10/15 06:11:49;;;;;;;5.77;1.87;;;10.60;99.90;;;;;;4996314;28;20194;-80
2023/10/15 06:14:15;;;;;;;4.97;2.40;;;10.40;99.90;;;;;;4992819;28;20490;-80
2023/10/15 06:16:41;;;;;;;2.57;1.90;;;10.20;99.90;;;;;;4987060;28;20186;-80
2023/10/15 06:19:09;;;;;;;2.75;1.73;;;10.30;99.90;;;;;;4984264;28;20182;-81
2023/10/15 06:21:35;;;;;;;3.00;2.08;;;10.70;99.90;;;;;;5009889;28;20290;-80
2023/10/15 06:24:00;;;;;;;3.90;2.20;;;10.70;99.90;;;;;;4989819;28;20242;-81
2023/10/15 06:26:26;;;;;;;1.63;1.50;;;11.10;99.90;;;;;;4986836;28;20967;-81
2023/10/15 06:28:52;;;;;;;2.65;1.60;;;10.50;99.90;;;;;;5008497;28;20182;-81
2023/10/15 06:31:17;;;;;;;3.40;2.00;;;10.70;99.90;;;;;;4991243;28;20184;-80
2023/10/15 06:33:44;;;;;;;3.57;1.80;;;10.20;99.90;;;;;;4994905;28;20652;-81
2023/10/15 06:36:09;;;;;;;2.05;1.85;;;10.10;99.90;;;;;;4986991;28;20182;-85
2023/10/15 06:38:35;;;;;;;10.53;2.90;;;10.80;99.90;;;;;;4989391;28;20182;-86
2023/10/15 06:41:00;;;;;;;3.80;2.77;;;10.70;99.90;;;;;;4990926;28;20183;-86
2023/10/15 06:43:29;;;;;;;2.43;1.87;;;10.70;99.90;;;;;;4988370;28;20298;-86
2023/10/15 06:46:03;;;;;;;3.20;1.92;;;11.00;99.90;;;;;;4992635;28;20196;-85
2023/10/15 06:48:28;;;;;;;3.20;2.35;;;11.20;99.90;;;;;;4983075;28;20274;-85
2023/10/15 06:50:56;;;;;;;3.90;1.90;;;10.60;99.90;;;;;;4989952;28;20187;-85
2023/10/15 06:53:23;;;;;;;5.20;2.63;;;11.20;99.90;;;;;;4992548;28;20257;-86
2023/10/15 06:55:51;;;;;;;4.18;2.65;;;11.50;99.90;;;;;;4994820;28;20532;-85
2023/10/15 06:58:17;;;;;;;3.45;2.13;;;10.70;99.90;;;;;;4993257;28;20226;-85
2023/10/15 07:00:42;;;;;;;5.90;2.70;;;11.00;99.90;;;;;;4990521;28;20725;-87
2023/10/15 07:03:07;;;;;;;2.60;2.17;;;10.70;99.90;;;;;;4996995;28;20468;-86
2023/10/15 07:05:33;;;;;;;4.63;2.43;;;10.70;99.90;;;;;;4993720;28;20288;-85
2023/10/15 07:07:59;;;;;;;4.80;2.60;;;11.00;99.90;;;;;;4987309;28;20260;-86
2023/10/15 07:10:25;;;;;;;5.90;2.30;;;11.30;99.90;;;;;;4992574;28;20213;-86
2023/10/15 07:12:51;;;;;;;4.03;2.53;;;11.60;99.90;;;;;;4998351;28;20211;-84
2023/10/15 07:15:18;;;;;;;2.87;2.33;;;11.00;99.90;;;;;;5003643;28;20540;-83
2023/10/15 07:17:44;;;;;;;3.95;1.92;;;11.40;99.90;;;;;;4990884;28;20225;-83
2023/10/15 07:20:14;;;;;;;4.45;3.05;;;11.30;99.90;;;;;;5003209;28;20810;-83
2023/10/15 07:22:46;;;;;;;4.25;2.78;;;11.40;99.90;;;;;;5001372;28;20228;-83
2023/10/15 07:25:13;;;;;;;3.40;3.03;;;11.20;99.90;;;;;;5004716;28;20190;-82
2023/10/15 07:27:42;;;;;;;4.70;2.78;;;11.60;99.90;;;;;;5005287;28;20214;-86
2023/10/15 07:30:12;;;;;;;7.90;2.63;;;11.40;99.90;;;;;;5001804;28;20958;-83
2023/10/15 07:32:47;;;;;;;6.10;2.80;;;11.50;99.90;;;;;;5003641;28;20210;-83
2023/10/15 07:35:15;;;;;;;3.88;2.65;;;11.00;99.90;;;;;;5001090;28;20186;-85
2023/10/15 07:37:46;;;;;;;3.83;2.50;;;11.70;99.90;;;;;;4988703;28;20754;-86
2023/10/15 07:40:19;;;;;;;5.22;2.58;;;11.90;99.90;;;;;;4988565;28;20250;-85
2023/10/15 07:42:46;;;;;;;3.35;2.85;;;12.00;99.90;;;;;;4995082;28;20700;-86
2023/10/15 07:45:12;;;;;;;4.90;2.63;;;11.50;99.90;;;;;;4993204;28;20222;-84
2023/10/15 07:47:38;;;;;;;4.05;2.60;;;12.20;99.90;;;;;;4994696;28;20231;-85
2023/10/15 07:50:09;;;;;;;3.70;2.40;;;12.10;99.90;;;;;;4991199;28;20592;-86
2023/10/15 07:52:34;;;;;;;3.80;3.15;;;12.30;99.90;;;;;;4986089;28;20486;-85
2023/10/15 07:55:01;;;;;;;5.10;2.67;;;11.70;99.90;;;;;;4999473;28;20175;-86
2023/10/15 07:57:27;;;;;;;5.70;2.88;;;11.70;99.90;;;;;;4998168;28;20493;-85
2023/10/15 07:59:58;;;;;;;4.33;3.10;;;12.20;99.90;;;;;;5017842;28;20251;-83
2023/10/15 08:02:24;;;;;;;5.50;2.92;;;12.20;99.90;;;;;;5012760;28;20242;-85
2023/10/15 08:04:53;;;;;;;3.20;2.50;;;12.30;99.90;;;;;;4997393;28;20187;-83
2023/10/15 08:07:19;;;;;;;3.72;2.70;;;12.30;99.90;;;;;;5000886;28;20214;-87
2023/10/15 08:09:44;;;;;;;2.70;1.83;;;12.60;99.90;;;;;;4995670;28;20202;-85
2023/10/15 08:12:11;;;;;;;4.17;2.13;;;12.20;99.90;;;;;;4992516;28;20180;-85
2023/10/15 08:14:37;;;;;;;3.70;1.85;;;12.70;99.90;;;;;;4991944;28;20183;-83
2023/10/15 08:17:03;;;;;;;2.00;1.67;;;12.40;99.90;;;;;;4997447;28;20198;-84
2023/10/15 08:19:28;;;;;;;3.00;1.73;;;12.60;99.90;;;;;;4997528;28;20195;-84
2023/10/15 08:21:54;;;;;;;4.63;2.00;;;12.70;99.90;;;;;;5004804;28;20209;-84
2023/10/15 08:24:19;;;;;;;6.53;2.20;;;12.00;99.80;;;;;;4999365;28;20190;-86
2023/10/15 08:26:46;;;;;;;4.67;2.03;;;13.30;99.90;;;;;;5001544;28;20203;-83
2023/10/15 08:29:12;;;;;;;3.13;1.95;;;12.40;99.90;;;;;;5002440;28;20191;-82
2023/10/15 08:31:38;;;;;;;3.97;1.80;;;12.30;99.70;;;;;;5004446;28;20195;-82
2023/10/15 08:34:03;;;;;;;4.10;1.57;;;12.60;99.60;;;;;;5019302;28;20530;-83
2023/10/15 08:36:29;;;;;;;4.73;1.83;;;12.70;98.90;;;;;;4999281;28;20278;-84
2023/10/15 08:38:54;;;;;;;3.53;1.40;;;12.90;98.70;;;;;;4989917;28;20570;-85
2023/10/15 08:41:27;;;;;;;2.00;1.70;;;12.80;98.00;;;;;;4997248;28;20198;-83
2023/10/15 08:43:53;;;;;;;4.20;1.80;;;12.80;97.80;;;;;;4997806;28;20204;-84
2023/10/15 08:46:22;;;;;;;2.83;1.80;;;12.60;97.80;;;;;;4999198;28;20222;-82
2023/10/15 08:48:49;;;;;;;3.40;1.50;;;12.60;97.70;;;;;;5000731;28;20183;-81
2023/10/15 08:51:21;;;;;;;8.07;2.20;;;12.50;96.70;;;;;;4989184;28;20210;-81
2023/10/15 08:53:49;;;;;;;3.95;3.65;;;12.70;97.30;;;;;;4994190;28;20199;-82
2023/10/15 08:56:21;;;;;;;2.63;1.50;;;12.50;96.90;;;;;;4991979;28;20187;-80
2023/10/15 08:58:52;;;;;;;2.40;1.50;;;13.00;97.40;;;;;;4992191;28;20180;-81
2023/10/15 09:01:18;;;;;;;3.78;1.67;;;13.00;97.30;;;;;;5000906;28;20194;-81
2023/10/15 09:03:44;;;;;;;3.45;2.03;;;13.00;97.60;;;;;;4997078;28;20275;-81
2023/10/15 09:06:10;;;;;;;2.33;1.47;;;12.60;97.00;;;;;;5000160;28;20183;-79
2023/10/15 09:08:41;;;;;;;5.33;2.10;;;13.20;97.70;;;;;;4991902;28;20187;-82
2023/10/15 09:11:10;;;;;;;2.97;1.33;;;12.90;97.20;;;;;;4999267;28;20195;-81
2023/10/15 09:13:37;;;;;;;6.15;1.77;;;13.80;96.90;;;;;;4994806;28;20334;-82
2023/10/15 09:16:07;;;;;;;4.45;1.67;;;13.20;96.80;;;;;;5001608;28;20281;-82
2023/10/15 09:18:35;;;;;;;2.75;1.52;;;13.40;95.80;;;;;;4998733;28;20179;-79
2023/10/15 09:21:05;;;;;;;2.92;1.20;;;13.50;97.80;;;;;;4998484;28;20215;-80
2023/10/15 09:24:23;;;;;;;2.60;1.40;;;12.90;99.60;;;;;;5019192;23;20212;-92
2023/10/15 09:27:20;;;;;;;2.28;1.13;;;12.90;99.50;;;;;;4976779;28;20216;-91
2023/10/15 09:30:51;;;;;;;1.98;1.30;;;13.00;99.90;;;;;;4980161;28;20189;-92
2023/10/15 09:34:25;;;;;;;5.45;1.60;;;13.10;99.90;;;;;;4964164;28;20245;-92
2023/10/15 09:37:22;;;;;;;2.45;1.70;;;13.00;99.90;;;;;;4979361;28;20184;-92
2023/10/15 09:40:09;;;;;;;3.70;2.15;;;12.90;99.90;;;;;;4979925;28;20273;-92
2023/10/15 10:12:03;;;;;;;3.75;1.80;;;14.20;99.20;;;;;;4997341;28;20215;-92
2023/10/15 10:15:00;;;;;;;5.38;1.88;;;15.00;98.00;;;;;;4951514;28;20185;-92
2023/10/15 10:17:35;;;;;;;3.15;1.63;;;14.40;96.70;;;;;;4973371;28;20196;-92
2023/10/15 10:20:11;;;;;;;3.10;1.33;;;14.50;95.80;;;;;;4981819;28;20195;-92
2023/10/15 10:30:53;;;;;;;3.08;1.10;;;14.10;92.30;;;;;;5343805;23;20264;-91
2023/10/15 10:34:08;;;;;;;1.48;1.05;;;14.10;93.20;;;;;;4939896;29;20244;-91
2023/10/15 10:37:11;;;;;;;1.85;1.27;;;13.80;93.20;;;;;;4961640;29;20201;-92
2023/10/15 10:39:52;;;;;;;1.90;1.08;;;14.00;95.30;;;;;;4961815;29;20254;-91
2023/10/15 17:48:10;;;;;;;3.90;3.50;;;10.70;93.20;;;;;;4948322;28;20234;-90
2023/10/15 17:50:41;;;;;;;2.95;2.65;;;11.60;94.40;;;;;;4961480;29;20182;-89
2023/10/15 17:53:13;;;;;;;3.55;2.45;;;11.50;95.40;;;;;;4960724;28;20277;-90
2023/10/15 17:56:21;;;;;;;4.35;1.88;;;10.20;94.50;;;;;;4963242;28;20194;-91
2023/10/15 17:58:46;;;;;;;2.15;1.75;;;10.00;93.90;;;;;;5213105;23;20196;-93
2023/10/15 19:58:14;;;;;;;2.92;2.33;;;7.80;99.90;;;;;;5791606;23;20187;-93
2023/10/15 20:00:43;;;;;;;3.78;2.92;;;;;;;;;;5793118;23;20425;-91
2023/10/15 20:47:01;;;;;;;2.92;2.58;;;7.20;99.90;;;;;;5011568;23;20231;-92
2023/10/15 20:49:27;;;;;;;3.20;2.60;;;7.60;99.90;;;;;;4983782;28;20176;-93
2023/10/15 20:51:53;;;;;;;2.70;2.50;;;7.50;99.90;;;;;;4973359;28;20186;-93
2023/10/15 20:54:18;;;;;;;2.20;2.00;;;7.10;99.90;;;;;;4979090;28;20219;-93
2023/10/15 20:56:44;;;;;;;3.83;2.53;;;7.70;99.90;;;;;;4973159;28;20175;-93
2023/10/15 20:59:10;;;;;;;3.00;2.70;;;8.90;99.90;;;;;;4985484;28;20176;-92
2023/10/15 21:01:35;;;;;;;2.43;2.07;;;9.40;99.90;;;;;;4984304;28;20536;-93
2023/10/15 21:04:01;;;;;;;2.93;2.53;;;6.80;99.90;;;;;;4976948;28;20207;-92
2023/10/15 21:06:27;;;;;;;3.60;2.40;;;;;;;;;;5080924;23;20219;-93
2023/10/15 21:08:53;;;;;;;4.13;2.50;;;;;;;;;;5629119;23;20240;-94
2023/10/15 21:13:55;;;;;;;3.70;3.13;;;7.10;99.90;;;;;;5077044;23;20506;-93
2023/10/15 21:16:20;;;;;;;2.90;2.60;;;7.00;99.90;;;;;;5004408;28;20199;-92
2023/10/15 21:18:47;;;;;;;3.17;2.87;;;;;;;;;;5093413;23;20216;-93
2023/10/15 21:21:13;;;;;;;3.80;3.15;;;6.90;99.90;;;;;;5120052;23;20264;-93
2023/10/15 21:23:40;;;;;;;3.20;2.92;;;7.20;99.90;;;;;;5040275;23;20288;-93
2023/10/15 21:28:48;;;;;;;3.80;2.70;;;6.80;99.90;;;;;;5031544;23;20246;-93
2023/10/15 21:44:10;;;;;;;2.42;2.22;;;6.80;99.90;;;;;;5841493;23;20215;-94
2023/10/15 21:46:36;;;;;;;2.80;2.17;;;;;;;;;;5196717;23;20255;-93
2023/10/15 21:59:21;;;;;;;2.65;2.45;;;7.00;99.90;;;;;;5026563;23;20324;-94
2023/10/15 22:01:46;;;;;;;2.93;2.60;;;6.60;99.90;;;;;;5004354;28;20168;-92
2023/10/15 22:04:13;;;;;;;3.00;2.50;;;6.10;99.90;;;;;;4981368;28;20217;-92
2023/10/15 22:06:40;;;;;;;4.50;2.50;;;7.00;99.90;;;;;;4976694;28;20216;-92
2023/10/15 22:09:12;;;;;;;2.28;1.90;;;7.00;99.90;;;;;;4977676;28;20177;-92
2023/10/15 22:11:40;;;;;;;2.20;2.00;;;7.00;99.90;;;;;;4987132;28;20168;-92
2023/10/15 22:14:07;;;;;;;2.55;2.35;;;6.30;99.90;;;;;;4983227;28;20221;-92
2023/10/15 22:16:33;;;;;;;2.97;2.70;;;6.70;99.90;;;;;;5080323;23;20223;-92
2023/10/15 22:18:59;;;;;;;3.00;2.55;;;6.70;99.90;;;;;;4981614;28;20181;-93
2023/10/15 22:21:24;;;;;;;6.60;2.70;;;7.00;99.90;;;;;;4960078;29;20257;-93
2023/10/15 22:23:53;;;;;;;3.33;2.70;;;6.90;99.90;;;;;;4975264;28;20197;-93
2023/10/15 22:26:22;;;;;;;3.70;2.83;;;7.00;99.90;;;;;;5521440;23;21418;-93
2023/10/15 22:28:59;;;;;;;2.83;2.50;;;7.10;99.90;;;;;;4994844;28;20271;-92
2023/10/15 22:31:25;;;;;;;2.30;2.10;;;6.90;99.90;;;;;;4990600;28;20244;-92
2023/10/15 22:33:51;;;;;;;2.60;2.38;;;6.70;99.90;;;;;;4992507;28;20263;-93
2023/10/15 22:36:21;;;;;;;3.30;2.80;;;7.00;99.90;;;;;;4982914;28;20619;-92
2023/10/15 22:38:50;;;;;;;3.25;2.58;;;6.50;99.90;;;;;;4987827;28;20185;-93
2023/10/15 22:41:16;;;;;;;4.07;2.83;;;6.70;99.90;;;;;;4977818;28;20184;-93
2023/10/15 22:43:41;;;;;;;4.63;2.55;;;6.60;99.90;;;;;;4974312;28;20224;-93
2023/10/15 22:46:07;;;;;;;2.87;2.57;;;6.70;99.90;;;;;;4983167;28;20205;-93
2023/10/15 22:48:33;;;;;;;3.40;2.57;;;6.50;99.90;;;;;;5047705;23;20251;-92
2023/10/15 22:51:00;;;;;;;3.15;2.50;;;6.30;99.90;;;;;;5223579;23;20216;-93
2023/10/15 22:58:35;;;;;;;3.60;2.55;;;6.50;99.90;;;;;;5767451;23;20231;-93
2023/10/15 23:01:03;;;;;;;3.87;2.73;;;;;;;;;;5295787;23;20208;-92
2023/10/15 23:03:29;;;;;;;2.70;2.50;;;6.30;99.90;;;;;;5780429;23;20313;-95
2023/10/15 23:08:26;;;;;;;3.08;2.47;;;6.60;99.90;;;;;;4981280;28;20476;-94
2023/10/15 23:18:33;;;;;;;2.67;2.40;;;6.70;99.90;;;;;;4981368;28;20224;-94
2023/10/15 23:21:00;;;;;;;2.90;2.13;;;6.30;99.90;;;;;;5087120;23;20219;-94
2023/10/15 23:23:26;;;;;;;4.18;2.13;;;6.00;99.90;;;;;;5064004;23;20488;-93
2023/10/15 23:25:52;;;;;;;2.23;2.00;;;6.20;99.90;;;;;;5464308;23;20219;-94
2023/10/15 23:30:47;;;;;;;3.20;2.03;;;6.50;99.90;;;;;;4996593;28;20227;-93
2023/10/15 23:33:14;;;;;;;3.60;2.00;;;5.70;99.90;;;;;;4997164;28;20184;-93
2023/10/15 23:35:40;;;;;;;2.70;2.30;;;5.80;99.90;;;;;;5548797;23;20297;-94
2023/10/15 23:38:09;;;;;;;3.70;1.93;;;;;;;;;;5256903;23;20212;-93
2023/10/15 23:40:37;;;;;;;2.70;2.20;;;6.10;99.90;;;;;;5012639;28;20175;-93
2023/10/15 23:43:10;;;;;;;2.75;2.15;;;8.20;99.90;;;;;;5112011;23;20214;-92
2023/10/15 23:45:36;;;;;;;2.60;2.22;;;5.80;99.90;;;;;;5270836;23;20222;-93
2023/10/15 23:50:44;;;;;;;1.83;1.73;;;6.00;99.90;;;;;;5000349;28;20426;-93
2023/10/15 23:53:18;;;;;;;3.35;2.03;;;6.00;99.90;;;;;;5020558;23;20220;-93
2023/10/15 23:55:49;;;;;;;2.50;2.30;;;6.10;99.90;;;;;;5012996;28;20183;-94
2023/10/15 23:58:15;;;;;;;3.28;2.05;;;;;;;;;;5016543;28;20176;-94
